Time;durP1;ratioP1;P1;durP2;ratioP2;P2;SDS_P1;SDS_P2;PMS_P1;PMS_P2;Temp;Humidity;BMP_temperature;BMP_pressure;BME280_temperature;BME280_humidity;BME280_pressure;Samples;Min_cycle;Max_cycle;Signal;HPM_P1;HPM_P2
2021/03/05 00:00:28;;;;;;;39.13;25.25;;;8.80;99.90;;;8.25;74.56;100801.38;4991946;28;20355;-46
2021/03/05 00:03:00;;;;;;;40.88;26.15;;;8.90;99.90;;;8.20;74.40;100803.53;4991527;28;20149;-44
2021/03/05 00:05:26;;;;;;;42.75;26.00;;;8.80;99.90;;;8.09;75.00;100800.94;4974625;28;20038;-43
2021/03/05 00:07:53;;;;;;;41.17;26.15;;;8.70;99.90;;;8.01;74.80;100797.31;4991599;28;20406;-47
2021/03/05 00:10:28;;;;;;;43.35;28.05;;;8.60;99.90;;;7.90;74.93;100795.56;4991410;28;20040;-45
2021/03/05 00:12:54;;;;;;;42.95;26.65;;;8.50;99.90;;;7.85;75.30;100788.13;4991453;28;20066;-45
2021/03/05 00:15:23;;;;;;;46.42;27.52;;;8.50;99.90;;;7.90;74.99;100791.19;4991247;28;20038;-45
2021/03/05 00:17:49;;;;;;;43.97;28.83;;;8.50;99.90;;;7.93;74.73;100793.56;4973607;28;20030;-45
2021/03/05 00:20:20;;;;;;;43.28;27.15;;;8.50;99.90;;;7.90;74.81;100785.19;4991344;28;20065;-43
2021/03/05 00:22:46;;;;;;;43.45;27.15;;;8.50;99.90;;;7.87;75.29;100790.59;4991277;28;20525;-45
2021/03/05 00:25:12;;;;;;;46.42;26.08;;;8.50;99.90;;;7.83;75.36;100784.81;4991384;28;20110;-44
2021/03/05 00:27:38;;;;;;;48.40;27.38;;;8.40;99.90;;;7.91;75.09;100781.66;4991063;28;20034;-44
2021/03/05 00:30:07;;;;;;;41.78;26.80;;;8.50;99.90;;;7.96;74.82;100782.94;4991300;28;20134;-45
2021/03/05 00:32:36;;;;;;;42.67;26.70;;;8.50;99.90;;;7.97;75.30;100781.16;4991144;28;20038;-44
2021/03/05 00:35:06;;;;;;;42.83;27.25;;;8.50;99.90;;;7.96;75.58;100776.91;4991152;28;20035;-46
2021/03/05 00:37:33;;;;;;;43.22;26.88;;;8.50;99.90;;;7.92;75.80;100778.09;4973575;28;20030;-45
2021/03/05 00:39:59;;;;;;;46.22;28.48;;;8.50;99.90;;;7.95;75.68;100772.69;4990864;28;20112;-46
2021/03/05 00:42:25;;;;;;;44.38;27.20;;;8.50;99.90;;;7.96;76.15;100779.50;4990356;28;20070;-46
2021/03/05 00:44:51;;;;;;;39.15;26.90;;;8.50;99.90;;;7.99;76.27;100774.09;4990836;28;20096;-44
2021/03/05 00:47:17;;;;;;;46.08;27.73;;;8.60;99.90;;;7.97;76.34;100768.19;4990931;28;20031;-45
2021/03/05 00:49:43;;;;;;;37.30;26.45;;;8.60;99.90;;;7.98;76.07;100762.06;4973026;28;20038;-46
2021/03/05 00:52:09;;;;;;;41.22;27.48;;;8.50;99.90;;;7.98;75.72;100760.28;4990444;28;20034;-48
2021/03/05 00:54:35;;;;;;;40.75;28.25;;;8.60;99.90;;;7.99;75.39;100763.72;4990579;28;20112;-46
2021/03/05 00:57:01;;;;;;;45.88;28.58;;;8.50;99.90;;;7.97;75.17;100763.00;4973123;28;20084;-47
2021/03/05 00:59:27;;;;;;;44.22;29.05;;;8.50;99.90;;;7.96;75.08;100759.59;4990490;28;20493;-48
2021/03/05 01:01:52;;;;;;;44.33;28.13;;;8.50;99.90;;;7.96;74.69;100754.41;4990594;28;20269;-46
2021/03/05 01:04:18;;;;;;;42.28;27.90;;;8.50;99.90;;;7.96;74.79;100758.75;4990500;28;20394;-44
2021/03/05 01:06:45;;;;;;;41.15;29.25;;;8.50;99.90;;;7.97;74.81;100750.03;4990447;28;20045;-46
2021/03/05 01:09:11;;;;;;;44.15;29.13;;;8.50;99.90;;;7.97;74.58;100750.84;4990276;28;20068;-48
2021/03/05 01:11:37;;;;;;;42.75;29.17;;;8.60;99.90;;;8.00;74.45;100749.78;4990031;28;20109;-44
2021/03/05 01:14:03;;;;;;;44.42;28.30;;;8.50;99.90;;;7.99;74.60;100740.34;4990070;28;20408;-46
2021/03/05 01:16:29;;;;;;;43.95;30.63;;;8.50;99.90;;;7.97;74.75;100739.66;4990282;28;20046;-45
2021/03/05 01:18:56;;;;;;;45.22;28.23;;;8.50;99.90;;;7.95;75.28;100733.75;4990280;28;20390;-47
2021/03/05 01:21:22;;;;;;;44.13;29.38;;;8.50;99.90;;;7.92;75.24;100734.00;4972591;28;20046;-44
2021/03/05 01:23:48;;;;;;;45.15;28.73;;;8.50;99.90;;;7.92;75.23;100723.63;4990225;28;20570;-47
2021/03/05 01:26:14;;;;;;;40.90;28.52;;;8.50;99.90;;;7.89;75.48;100719.50;4989971;28;20038;-48
2021/03/05 01:28:40;;;;;;;41.58;26.98;;;8.50;99.90;;;7.92;74.97;100716.66;4989764;28;20370;-49
2021/03/05 01:31:10;;;;;;;41.13;28.73;;;8.50;99.90;;;7.92;74.96;100713.25;4990076;28;20141;-49
2021/03/05 01:33:36;;;;;;;39.45;28.20;;;8.50;99.90;;;7.93;75.14;100717.47;4989776;28;20394;-49
2021/03/05 01:36:02;;;;;;;40.53;29.33;;;8.50;99.90;;;7.96;74.76;100718.06;4989736;28;20105;-45
2021/03/05 01:38:28;;;;;;;42.05;27.48;;;8.50;99.90;;;7.96;75.00;100707.69;4989942;28;20089;-44
2021/03/05 01:40:54;;;;;;;40.67;27.73;;;8.50;99.90;;;7.98;74.75;100707.56;4989605;28;20122;-45
2021/03/05 01:43:20;;;;;;;40.00;27.25;;;8.50;99.90;;;7.99;74.79;100699.66;4989426;28;20121;-45
2021/03/05 01:45:47;;;;;;;46.78;29.38;;;8.50;99.90;;;8.02;74.74;100701.19;4972043;28;20460;-45
2021/03/05 01:48:17;;;;;;;41.42;28.23;;;8.50;99.90;;;8.02;75.10;100688.22;4989741;28;20041;-44
2021/03/05 01:51:09;;;;;;;42.67;26.95;;;8.60;99.90;;;8.07;75.45;100688.66;4990192;28;20058;-47
2021/03/05 01:53:36;;;;;;;45.08;26.58;;;8.60;99.90;;;8.03;74.71;100686.44;4989578;28;20037;-46
2021/03/05 01:56:05;;;;;;;38.13;25.42;;;8.60;99.90;;;8.04;74.79;100691.47;4990066;28;20034;-50
2021/03/05 01:58:31;;;;;;;39.00;25.23;;;8.60;99.90;;;8.02;74.80;100680.44;4989431;28;20656;-48
2021/03/05 02:01:06;;;;;;;38.45;27.13;;;8.60;99.90;;;8.01;75.01;100683.16;4989495;28;20125;-44
2021/03/05 02:03:32;;;;;;;38.88;26.95;;;8.60;99.90;;;8.04;74.70;100677.69;4989220;28;20370;-44
2021/03/05 02:05:59;;;;;;;39.83;27.00;;;8.60;99.90;;;8.03;74.63;100673.47;4989455;28;20033;-44
2021/03/05 02:08:25;;;;;;;39.75;26.50;;;8.60;99.90;;;8.03;74.85;100663.91;4989649;28;20062;-44
2021/03/05 02:10:52;;;;;;;42.40;27.60;;;8.60;99.90;;;8.04;75.19;100662.94;4989375;28;20033;-46
2021/03/05 02:13:18;;;;;;;37.05;26.40;;;8.60;99.90;;;8.03;74.85;100663.91;4989284;28;20034;-50
2021/03/05 02:15:44;;;;;;;43.47;26.45;;;8.50;99.90;;;8.05;75.23;100659.41;4989682;28;20042;-48
2021/03/05 02:18:44;;;;;;;38.08;25.45;;;8.60;99.90;;;8.06;75.70;100655.84;4989128;28;20101;-48
2021/03/05 02:21:16;;;;;;;40.60;27.20;;;8.60;99.90;;;8.04;74.88;100656.94;4972226;28;20031;-48
2021/03/05 02:24:26;;;;;;;37.95;25.80;;;8.60;99.90;;;8.04;75.15;100651.75;4989176;28;20090;-49
2021/03/05 02:27:23;;;;;;;41.45;25.50;;;8.60;99.90;;;8.03;75.16;100652.72;4989314;28;20051;-50
2021/03/05 02:30:32;;;;;;;40.55;24.52;;;8.60;99.90;;;8.01;75.06;100652.84;4989414;28;20515;-44
2021/03/05 02:33:12;;;;;;;38.35;25.45;;;8.60;99.90;;;7.97;74.73;100646.25;4989298;28;20039;-46
2021/03/05 02:35:40;;;;;;;37.47;24.58;;;8.50;99.90;;;7.98;74.42;100640.09;4973166;28;20422;-44
2021/03/05 02:38:10;;;;;;;33.88;24.55;;;8.60;99.90;;;7.98;74.33;100629.72;4971617;28;20089;-50
2021/03/05 02:43:16;;;;;;;42.13;25.77;;;8.50;99.90;;;7.98;74.41;100634.91;4586859;23;20117;-45
2021/03/05 02:45:45;;;;;;;39.90;25.92;;;8.50;99.90;;;7.96;74.22;100629.84;4952689;28;20049;-47
2021/03/05 02:48:22;;;;;;;39.88;27.42;;;8.50;99.90;;;7.94;74.33;100631.75;4969477;28;20038;-45
2021/03/05 02:50:53;;;;;;;43.67;26.35;;;8.50;99.90;;;7.94;73.96;100629.16;4952352;28;20522;-44
2021/03/05 02:53:22;;;;;;;41.60;25.45;;;8.50;99.90;;;7.94;73.91;100628.31;4952530;28;20521;-46
2021/03/05 02:55:54;;;;;;;40.38;26.58;;;8.50;99.90;;;7.94;73.95;100625.72;4952709;28;20041;-44
2021/03/05 02:58:24;;;;;;;40.00;26.02;;;8.50;99.90;;;7.92;74.00;100625.84;4952297;28;20390;-44
2021/03/05 03:00:52;;;;;;;41.50;26.42;;;8.50;99.90;;;7.93;73.97;100624.09;4969454;28;20041;-46
2021/03/05 03:03:21;;;;;;;40.45;26.85;;;8.50;99.90;;;7.93;74.05;100622.31;4951925;28;20149;-45
2021/03/05 03:05:50;;;;;;;39.97;26.30;;;8.50;99.90;;;7.92;73.96;100622.44;4954616;28;20397;-45
2021/03/05 03:08:19;;;;;;;38.88;26.88;;;8.50;99.90;;;7.81;74.44;100622.47;4971861;28;20061;-45
2021/03/05 03:10:47;;;;;;;42.10;26.05;;;8.40;99.90;;;7.80;74.74;100618.22;4973389;28;20211;-44
2021/03/05 03:13:14;;;;;;;42.17;26.13;;;8.40;99.90;;;7.81;74.97;100620.69;4955785;28;20037;-45
2021/03/05 03:15:41;;;;;;;39.88;26.17;;;8.40;99.90;;;7.79;74.98;100620.00;4972979;28;20038;-44
2021/03/05 03:18:12;;;;;;;37.83;26.73;;;8.40;99.90;;;7.76;75.25;100622.00;4954405;28;20029;-45
2021/03/05 03:20:40;;;;;;;39.30;25.67;;;8.40;99.90;;;7.71;75.71;100622.38;4974888;28;20065;-46
2021/03/05 03:23:06;;;;;;;47.85;25.55;;;8.30;99.90;;;7.64;75.73;100623.81;4974844;28;20118;-43
2021/03/05 03:25:33;;;;;;;43.22;27.70;;;8.20;99.90;;;7.61;76.13;100627.47;4992378;28;20411;-48
2021/03/05 03:27:59;;;;;;;40.05;26.70;;;8.20;99.90;;;7.63;75.90;100627.34;4974777;28;20049;-47
2021/03/05 03:30:25;;;;;;;38.95;26.30;;;8.20;99.90;;;7.68;75.72;100626.97;4992588;28;20034;-45
2021/03/05 03:32:53;;;;;;;39.33;25.15;;;8.20;99.90;;;7.65;75.74;100626.28;4992379;28;20126;-44
2021/03/05 03:35:21;;;;;;;38.72;25.55;;;8.20;99.90;;;7.69;75.76;100631.22;4992064;28;20065;-42
2021/03/05 03:37:49;;;;;;;42.92;26.27;;;8.20;99.90;;;7.68;75.79;100624.38;4992161;28;20117;-44
2021/03/05 03:40:20;;;;;;;45.88;27.40;;;8.30;99.90;;;7.65;76.41;100631.47;4974356;28;20475;-44
2021/03/05 03:42:50;;;;;;;41.80;26.65;;;8.20;99.90;;;7.67;75.86;100633.94;4991637;28;20413;-44
2021/03/05 03:45:22;;;;;;;44.83;26.85;;;8.30;99.90;;;7.66;76.08;100624.50;4992163;28;20030;-48
2021/03/05 03:47:50;;;;;;;46.05;26.33;;;8.20;99.90;;;7.66;75.95;100627.94;4991965;28;20042;-45
2021/03/05 03:50:49;;;;;;;38.80;26.60;;;8.20;99.90;;;7.69;76.01;100626.03;4992359;28;20026;-48
2021/03/05 03:53:29;;;;;;;36.05;25.23;;;8.20;99.90;;;7.65;76.11;100626.28;4976460;28;20073;-47
2021/03/05 03:55:56;;;;;;;40.45;26.30;;;8.20;99.90;;;7.59;76.62;100624.16;4991747;28;20045;-45
2021/03/05 03:58:25;;;;;;;36.78;26.40;;;8.20;99.90;;;7.61;76.48;100624.03;4991688;28;20030;-46
2021/03/05 04:00:57;;;;;;;41.53;27.08;;;8.20;99.90;;;7.61;76.54;100621.44;4991672;28;20108;-50
2021/03/05 04:03:31;;;;;;;47.72;27.02;;;8.20;99.90;;;7.69;76.32;100624.28;4991571;28;20065;-44
2021/03/05 04:05:58;;;;;;;39.28;25.60;;;8.20;99.90;;;7.70;75.54;100623.31;4958386;28;20459;-48
2021/03/05 04:08:26;;;;;;;41.58;27.52;;;8.20;99.90;;;7.72;75.25;100621.44;4991612;28;20514;-45
2021/03/05 04:10:54;;;;;;;37.20;24.50;;;8.30;99.90;;;7.74;75.58;100618.72;4991654;28;20077;-45
2021/03/05 04:13:20;;;;;;;38.40;24.42;;;8.30;99.90;;;7.75;74.81;100623.78;4974050;28;20026;-50
2021/03/05 04:15:46;;;;;;;37.60;25.08;;;8.30;99.90;;;7.76;74.70;100624.59;4991486;28;20038;-45
2021/03/05 04:18:13;;;;;;;39.17;26.20;;;8.30;99.90;;;7.80;74.97;100620.81;4973565;28;20034;-47
2021/03/05 04:20:41;;;;;;;38.05;25.92;;;8.30;99.90;;;7.79;74.87;100621.78;4974158;28;20035;-45
2021/03/05 04:23:07;;;;;;;44.97;25.95;;;8.30;99.90;;;7.82;74.55;100613.75;4973953;28;20512;-46
2021/03/05 04:25:33;;;;;;;41.42;25.75;;;8.40;99.90;;;7.83;74.28;100618.81;4973789;28;20076;-46
2021/03/05 04:28:00;;;;;;;36.05;24.85;;;8.40;99.90;;;7.85;75.02;100621.28;4991471;28;20469;-43
2021/03/05 04:30:26;;;;;;;38.97;25.70;;;8.40;99.90;;;7.83;74.65;100615.38;4991253;28;20030;-44
2021/03/05 04:32:52;;;;;;;41.67;27.27;;;8.40;99.90;;;7.82;75.08;100619.75;4990991;28;20041;-45
2021/03/05 04:35:18;;;;;;;45.85;25.65;;;8.40;99.90;;;7.83;75.11;100617.97;4991053;28;20149;-45
2021/03/05 04:37:44;;;;;;;42.03;25.77;;;8.40;99.90;;;7.77;75.25;100613.28;4991324;28;20057;-46
2021/03/05 04:40:11;;;;;;;40.88;25.08;;;8.40;99.90;;;7.63;75.37;100612.59;4991052;28;20429;-44
2021/03/05 04:42:38;;;;;;;44.25;26.77;;;8.30;99.90;;;7.53;75.77;100614.31;4990890;28;20082;-43
2021/03/05 04:45:08;;;;;;;42.35;25.60;;;8.20;99.90;;;7.42;75.86;100623.88;4990849;28;20515;-44
2021/03/05 04:47:34;;;;;;;38.55;25.70;;;8.10;99.90;;;7.31;76.23;100625.53;4990728;28;20057;-48
2021/03/05 04:50:00;;;;;;;39.90;26.40;;;8.00;99.90;;;7.29;76.23;100629.19;4990777;28;20097;-46
2021/03/05 04:52:26;;;;;;;44.40;26.40;;;7.90;99.90;;;7.27;76.26;100620.69;4991273;28;20034;-46
2021/03/05 04:54:52;;;;;;;44.40;26.02;;;7.90;99.90;;;7.29;76.07;100622.22;4990908;28;20426;-45
2021/03/05 04:57:18;;;;;;;44.05;28.15;;;7.90;99.90;;;7.31;75.99;100620.34;4990672;28;20089;-46
2021/03/05 04:59:44;;;;;;;40.40;25.70;;;7.90;99.90;;;7.33;75.95;100621.06;4990477;28;20034;-43
2021/03/05 05:02:10;;;;;;;44.38;27.05;;;7.90;99.90;;;7.39;75.87;100619.75;4990864;28;20428;-46
2021/03/05 05:04:35;;;;;;;38.72;25.95;;;8.00;99.90;;;7.44;75.97;100616.78;4990530;28;20042;-48
2021/03/05 05:07:01;;;;;;;41.25;27.15;;;8.00;99.90;;;7.46;75.58;100620.91;4990466;28;20117;-47
2021/03/05 05:09:27;;;;;;;42.30;26.35;;;8.00;99.90;;;7.45;75.80;100623.63;4973038;28;20061;-44
2021/03/05 05:11:54;;;;;;;38.53;23.70;;;8.00;99.90;;;7.45;76.24;100621.84;4972938;28;20106;-46
2021/03/05 05:14:19;;;;;;;45.72;27.85;;;8.10;99.90;;;7.50;76.14;100624.09;4990204;28;20030;-45
2021/03/05 05:16:45;;;;;;;40.92;26.92;;;8.10;99.90;;;7.47;76.45;100625.16;4990177;28;20062;-46
2021/03/05 05:19:11;;;;;;;47.75;27.08;;;8.10;99.90;;;7.47;77.12;100619.97;4989939;28;20031;-46
2021/03/05 05:21:38;;;;;;;45.22;26.17;;;8.10;99.90;;;7.54;77.42;100620.31;4990216;28;20046;-45
2021/03/05 05:24:06;;;;;;;41.17;26.20;;;8.10;99.90;;;7.53;76.24;100613.47;4990011;28;20043;-44
2021/03/05 05:26:32;;;;;;;41.50;25.35;;;8.10;99.90;;;7.50;76.26;100606.78;4990378;28;20041;-47
2021/03/05 05:28:58;;;;;;;41.75;25.90;;;8.10;99.90;;;7.52;75.44;100594.50;4989177;28;20030;-44
2021/03/05 05:31:24;;;;;;;44.60;26.45;;;8.10;99.90;;;7.55;75.20;100602.06;4989931;28;20363;-45
2021/03/05 05:33:49;;;;;;;36.08;24.52;;;8.10;99.90;;;7.60;75.07;100592.09;4989793;28;20030;-43
2021/03/05 05:36:15;;;;;;;40.80;25.27;;;8.20;99.90;;;7.68;75.07;100595.88;4972451;28;20034;-46
2021/03/05 05:38:41;;;;;;;47.17;26.52;;;8.20;99.90;;;7.71;74.86;100588.66;4989946;28;20143;-45
2021/03/05 05:41:07;;;;;;;40.33;26.27;;;8.20;99.90;;;7.74;75.16;100577.22;4989815;28;20530;-45
2021/03/05 05:43:33;;;;;;;38.45;26.38;;;8.30;99.90;;;7.75;75.11;100589.25;4989413;28;20062;-46
2021/03/05 05:46:05;;;;;;;45.67;26.88;;;8.30;99.90;;;7.70;75.76;100581.81;4989842;28;20053;-44
2021/03/05 05:48:35;;;;;;;41.08;25.58;;;8.30;99.90;;;7.66;75.96;100590.78;4989750;28;20560;-43
2021/03/05 05:51:05;;;;;;;37.78;25.17;;;8.20;99.90;;;7.63;76.00;100586.69;4989681;28;20073;-48
2021/03/05 05:53:34;;;;;;;46.08;25.20;;;8.20;99.90;;;7.60;76.37;100581.72;4990000;28;20096;-44
2021/03/05 05:56:01;;;;;;;42.55;26.63;;;8.20;99.90;;;7.55;76.45;100581.31;4972128;28;20026;-43
2021/03/05 05:58:28;;;;;;;37.75;25.95;;;8.20;99.90;;;7.52;77.06;100576.38;4972098;28;20038;-47
2021/03/05 06:00:56;;;;;;;39.45;25.23;;;8.10;99.90;;;7.49;77.17;100581.78;4971539;28;20038;-46
2021/03/05 06:03:27;;;;;;;37.47;24.75;;;8.10;99.90;;;7.44;77.11;100570.97;4989233;28;20042;-43
2021/03/05 06:05:54;;;;;;;38.97;25.83;;;8.10;99.90;;;7.42;77.16;100572.84;4972461;28;20057;-43
2021/03/05 06:08:20;;;;;;;37.78;25.38;;;8.10;99.90;;;7.37;77.90;100569.78;4989222;28;20038;-43
2021/03/05 06:10:46;;;;;;;40.70;26.20;;;8.00;99.90;;;7.38;77.96;100571.44;4971628;28;20062;-47
2021/03/05 06:13:12;;;;;;;38.40;24.13;;;8.00;99.90;;;7.41;78.37;100581.56;4989182;28;20610;-45
2021/03/05 06:15:38;;;;;;;37.60;26.02;;;8.00;99.90;;;7.45;78.10;100582.97;4989186;28;20042;-44
2021/03/05 06:18:05;;;;;;;43.67;25.02;;;8.10;99.90;;;7.50;78.33;100580.84;4989154;28;20038;-45
2021/03/05 06:20:44;;;;;;;41.38;26.17;;;8.10;99.90;;;7.59;78.13;100587.88;4989247;28;20038;-47
2021/03/05 06:23:13;;;;;;;39.25;25.70;;;8.20;99.90;;;7.61;78.40;100593.75;4988959;28;20109;-44
2021/03/05 06:25:39;;;;;;;37.58;24.90;;;8.20;99.90;;;7.70;78.24;100591.38;4989298;28;20038;-46
2021/03/05 06:28:17;;;;;;;38.03;25.42;;;8.30;99.90;;;7.77;77.67;100602.91;4971504;28;20397;-45
2021/03/05 06:30:43;;;;;;;43.08;26.52;;;8.30;99.90;;;7.77;77.29;100597.72;4988988;28;20030;-44
2021/03/05 06:33:31;;;;;;;38.55;25.25;;;8.40;99.90;;;7.88;77.37;100602.88;4971608;28;20053;-44
2021/03/05 06:36:17;;;;;;;41.15;25.90;;;8.50;99.90;;;7.94;76.74;100603.22;4971907;28;20548;-45
2021/03/05 06:38:46;;;;;;;44.40;27.63;;;8.60;99.90;;;7.99;77.57;100606.25;4989049;28;20031;-45
2021/03/05 06:41:24;;;;;;;42.78;26.33;;;8.60;99.90;;;8.05;77.41;100615.28;4988816;28;20468;-44
2021/03/05 06:43:55;;;;;;;50.28;26.85;;;8.70;99.90;;;8.12;76.19;100607.81;4988770;28;20056;-45
2021/03/05 06:46:38;;;;;;;44.83;26.05;;;8.70;99.90;;;8.31;75.53;100607.97;4988840;28;20046;-44
2021/03/05 06:49:13;;;;;;;40.90;26.10;;;8.90;99.90;;;8.61;74.78;100617.63;4989007;28;20046;-44
2021/03/05 06:51:40;;;;;;;47.88;25.98;;;9.10;99.90;;;8.82;73.56;100620.19;4988732;28;20061;-44
2021/03/05 06:54:14;;;;;;;46.85;26.83;;;9.40;99.90;;;8.78;74.22;100622.22;4989157;28;20504;-49
2021/03/05 06:56:48;;;;;;;43.30;27.40;;;9.40;99.90;;;8.70;74.33;100616.84;4971191;28;20081;-48
2021/03/05 06:59:17;;;;;;;43.25;26.23;;;9.40;99.90;;;8.60;74.66;100618.56;4988691;28;20046;-45
2021/03/05 07:01:53;;;;;;;39.42;25.20;;;9.40;99.90;;;8.58;74.17;100621.28;4988682;28;20448;-46
2021/03/05 07:04:24;;;;;;;38.30;24.95;;;9.20;99.90;;;8.59;73.90;100620.34;4988509;28;20031;-46
2021/03/05 07:07:09;;;;;;;46.25;25.45;;;9.20;99.90;;;8.45;73.42;100619.84;4988425;28;20089;-46
2021/03/05 07:09:41;;;;;;;40.40;24.92;;;9.10;99.90;;;8.30;74.00;100621.91;4988898;28;20085;-47
2021/03/05 07:12:20;;;;;;;45.42;26.08;;;9.00;99.90;;;8.25;74.41;100624.88;4988934;28;20060;-49
2021/03/05 07:15:07;;;;;;;41.55;26.88;;;8.90;99.90;;;8.26;74.13;100628.28;4971174;28;20525;-46
2021/03/05 07:17:33;;;;;;;;;;;8.90;99.90;;;8.27;74.00;100635.13;4956173;28;20049;-49
2021/03/05 07:19:59;;;;;;;38.80;25.05;;;8.90;99.90;;;8.29;74.02;100635.84;4987843;28;19922;-45
2021/03/05 07:22:29;;;;;;;46.17;25.85;;;8.90;99.90;;;8.38;73.53;100637.72;4988323;28;20506;-44
2021/03/05 07:24:57;;;;;;;44.35;26.10;;;9.00;99.90;;;8.45;73.72;100631.06;4988527;28;20031;-46
2021/03/05 07:27:37;;;;;;;40.55;24.92;;;9.00;99.90;;;8.53;73.62;100633.00;4986772;28;20043;-43
2021/03/05 07:30:08;;;;;;;46.65;26.08;;;9.10;99.90;;;8.61;73.61;100623.63;4988044;28;20066;-46
2021/03/05 07:32:47;;;;;;;38.55;23.42;;;9.10;99.90;;;8.69;73.23;100630.78;4982722;28;20089;-48
2021/03/05 07:35:35;;;;;;;48.45;26.00;;;9.20;99.90;;;8.66;73.42;100633.63;4967466;28;20026;-45
2021/03/05 07:38:05;;;;;;;40.42;25.70;;;9.20;99.90;;;8.65;73.34;100640.59;4963753;28;20105;-51
2021/03/05 07:40:33;;;;;;;42.42;25.25;;;9.20;99.90;;;8.67;73.08;100637.88;4976106;28;20171;-44
2021/03/05 07:42:59;;;;;;;43.65;25.42;;;9.30;99.90;;;8.81;72.46;100639.34;4987979;28;20047;-43
2021/03/05 07:45:25;;;;;;;48.75;27.58;;;9.30;99.90;;;8.90;72.57;100634.19;4986651;28;20065;-43
2021/03/05 07:47:55;;;;;;;35.40;24.73;;;9.40;99.90;;;9.11;72.17;100634.13;4968898;28;20039;-45
2021/03/05 07:50:24;;;;;;;40.20;24.33;;;9.60;99.90;;;9.49;70.85;100633.41;4986347;28;20105;-46
2021/03/05 07:52:56;;;;;;;40.35;25.35;;;9.90;99.90;;;9.82;69.93;100634.03;4990749;28;20073;-45
2021/03/05 07:55:39;;;;;;;40.67;25.20;;;10.30;99.90;;;10.01;69.01;100634.03;4969122;28;20390;-45
2021/03/05 07:58:05;;;;;;;31.92;22.52;;;10.50;99.90;;;10.20;68.40;100644.47;4972017;28;20039;-46
2021/03/05 08:00:52;;;;;;;37.03;22.67;;;10.70;99.90;;;10.34;68.08;100645.84;4954659;28;20125;-48
2021/03/05 08:03:23;;;;;;;35.00;23.27;;;10.90;99.90;;;10.48;67.81;100639.38;4971773;28;20043;-43
2021/03/05 08:05:50;;;;;;;35.03;23.10;;;11.00;99.90;;;10.64;67.44;100644.84;4972011;28;20046;-43
2021/03/05 08:08:28;;;;;;;36.35;22.73;;;11.20;99.90;;;10.61;67.76;100639.91;4971804;28;20569;-43
2021/03/05 08:11:00;;;;;;;31.33;22.27;;;11.20;99.90;;;10.75;67.38;100644.69;4970347;28;20039;-43
2021/03/05 08:13:51;;;;;;;42.03;22.48;;;11.30;99.90;;;10.57;67.66;100641.13;4972302;28;20050;-48
2021/03/05 08:16:30;;;;;;;38.92;23.70;;;11.30;99.90;;;10.45;68.32;100647.47;4954219;28;20408;-43
2021/03/05 08:19:04;;;;;;;32.20;23.35;;;11.10;99.90;;;10.34;68.53;100650.25;4972035;28;20039;-43
2021/03/05 08:24:39;;;;;;;43.85;24.23;;;10.80;99.90;;;9.99;69.65;100654.16;4971828;28;20054;-44
2021/03/05 08:27:31;;;;;;;38.10;24.52;;;10.70;99.90;;;9.92;69.14;100651.28;4954193;28;20039;-45
2021/03/05 08:30:13;;;;;;;41.35;25.02;;;10.60;99.90;;;9.81;69.87;100651.44;4966625;28;20050;-48
2021/03/05 08:32:55;;;;;;;42.58;25.40;;;10.50;99.90;;;9.89;69.31;100659.38;4971725;28;20030;-44
2021/03/05 08:35:31;;;;;;;44.30;24.80;;;10.50;99.90;;;9.94;69.26;100654.56;4971437;28;20078;-43
2021/03/05 08:38:07;;;;;;;39.72;25.30;;;10.50;99.90;;;10.00;69.49;100650.59;4971495;28;20144;-47
2021/03/05 08:40:46;;;;;;;42.10;25.20;;;10.50;99.90;;;9.95;69.16;100643.19;4971439;28;20050;-44
2021/03/05 08:43:28;;;;;;;36.53;24.55;;;10.50;99.90;;;9.97;69.14;100643.88;4971092;28;20763;-44
2021/03/05 08:46:03;;;;;;;40.13;24.50;;;10.60;99.90;;;10.10;68.96;100653.22;4971659;28;20149;-45
2021/03/05 08:48:43;;;;;;;44.17;25.35;;;10.70;99.90;;;10.03;69.25;100652.94;4969791;28;20046;-44
2021/03/05 08:51:15;;;;;;;44.47;24.42;;;10.70;99.90;;;10.14;68.82;100651.97;4971661;28;20537;-44
2021/03/05 08:53:53;;;;;;;36.72;23.23;;;10.70;99.90;;;10.26;68.46;100648.31;4990534;28;20520;-43
2021/03/05 08:56:29;;;;;;;35.40;22.52;;;10.80;99.90;;;10.27;69.01;100656.00;4972947;28;20494;-44
2021/03/05 08:59:05;;;;;;;38.17;24.00;;;10.90;99.90;;;10.42;68.16;100650.34;4990747;28;20042;-43
2021/03/05 09:01:37;;;;;;;37.72;22.27;;;11.00;99.90;;;10.66;67.95;100650.72;4973260;28;20525;-43
2021/03/05 09:04:16;;;;;;;40.67;22.58;;;11.20;99.90;;;10.89;67.32;100646.81;4980849;28;20034;-43
2021/03/05 09:06:57;;;;;;;33.50;22.00;;;11.40;99.90;;;10.96;66.81;100647.88;4987056;28;20545;-47
2021/03/05 09:09:27;;;;;;;40.38;23.65;;;11.50;99.90;;;11.18;66.28;100651.09;4992457;28;20471;-46
2021/03/05 09:12:13;;;;;;;32.13;20.80;;;11.70;99.90;;;11.03;67.20;100653.34;4973219;28;20112;-43
2021/03/05 09:14:44;;;;;;;;;;;11.70;99.90;;;11.02;67.17;100650.88;4996012;28;20127;-44
2021/03/05 09:17:12;;;;;;;33.20;21.67;;;11.70;99.90;;;11.11;67.38;100655.25;5002105;28;19926;-43
2021/03/05 09:19:44;;;;;;;34.50;22.70;;;11.70;99.90;;;11.19;67.04;100644.94;5001982;28;20035;-44
2021/03/05 09:22:23;;;;;;;35.22;20.48;;;11.80;99.90;;;11.42;66.52;100647.97;4995324;28;20030;-44
2021/03/05 09:24:59;;;;;;;25.08;18.08;;;11.90;99.90;;;11.38;66.66;100649.22;4990287;28;20498;-44
2021/03/05 09:27:36;;;;;;;29.15;20.65;;;12.10;99.90;;;11.22;67.38;100648.06;4984053;28;20517;-44
2021/03/05 09:30:24;;;;;;;29.50;20.58;;;11.90;99.90;;;11.28;67.31;100651.91;4998034;28;20409;-46
2021/03/05 09:32:55;;;;;;;30.33;20.77;;;12.00;99.90;;;11.41;67.06;100649.75;4995498;28;20035;-45
2021/03/05 09:35:26;;;;;;;22.33;17.25;;;12.00;99.90;;;11.41;67.08;100644.53;4967888;28;20029;-44
2021/03/05 09:37:53;;;;;;;31.20;18.15;;;12.10;99.90;;;11.70;66.33;100641.75;4993975;28;20040;-46
2021/03/05 09:40:20;;;;;;;24.80;18.40;;;12.30;99.90;;;11.81;66.31;100646.81;4988529;28;20794;-46
2021/03/05 09:43:02;;;;;;;23.80;17.00;;;12.40;99.90;;;12.16;65.67;100640.75;4999098;28;20093;-46
2021/03/05 09:45:44;;;;;;;25.77;17.92;;;12.70;99.90;;;12.55;64.22;100646.44;4997130;28;20034;-44
2021/03/05 09:48:48;;;;;;;28.52;18.70;;;13.10;99.90;;;12.87;63.58;100637.97;4996345;28;20038;-46
2021/03/05 09:51:14;;;;;;;31.13;18.35;;;13.50;99.90;;;12.98;63.46;100643.91;4930073;29;20054;-45
2021/03/05 09:53:56;;;;;;;32.60;17.63;;;13.70;99.90;;;13.44;61.83;100646.09;4934474;29;20052;-46
2021/03/05 09:56:27;;;;;;;26.77;17.98;;;14.00;99.90;;;13.44;62.06;100648.72;4913593;29;20042;-46
2021/03/05 09:59:02;;;;;;;22.02;16.33;;;14.10;99.90;;;13.34;62.35;100655.88;4929277;29;20461;-47
2021/03/05 10:01:35;;;;;;;25.15;17.27;;;14.10;99.90;;;13.43;62.13;100659.34;4913390;29;20528;-46
2021/03/05 10:04:02;;;;;;;23.38;16.67;;;14.10;99.90;;;13.69;61.43;100649.63;4928918;29;20067;-45
2021/03/05 10:06:30;;;;;;;22.13;16.75;;;14.20;99.90;;;13.55;61.63;100651.06;4928803;29;20436;-48
2021/03/05 10:09:05;;;;;;;25.77;17.17;;;14.30;99.90;;;13.38;61.79;100662.44;4928794;29;20070;-50
2021/03/05 10:11:39;;;;;;;24.95;16.90;;;14.10;99.90;;;13.25;62.40;100662.88;4912986;29;20043;-48
2021/03/05 10:14:10;;;;;;;25.08;17.00;;;14.00;99.90;;;13.15;62.82;100653.50;4928272;29;20079;-45
2021/03/05 10:16:41;;;;;;;26.20;16.83;;;13.80;99.90;;;13.32;62.16;100652.59;4928456;29;20044;-49
2021/03/05 10:19:08;;;;;;;32.10;16.98;;;13.90;99.90;;;13.41;62.02;100645.59;4928718;29;20051;-46
2021/03/05 10:21:40;;;;;;;27.67;18.60;;;14.00;99.90;;;13.53;61.91;100650.38;4928703;29;20040;-44
2021/03/05 10:24:09;;;;;;;26.27;17.00;;;14.10;99.90;;;13.65;61.48;100655.34;4929838;28;20083;-46
2021/03/05 10:26:36;;;;;;;22.90;17.40;;;14.20;99.90;;;13.71;61.37;100657.28;4970063;28;20104;-51
2021/03/05 10:29:06;;;;;;;26.33;17.27;;;14.30;99.90;;;13.60;61.55;100655.81;4969480;28;20524;-47
2021/03/05 10:31:50;;;;;;;26.27;17.63;;;14.20;99.90;;;13.86;60.66;100653.91;4970121;28;20415;-47